createdAt,value
2019-01-30T00:00:31.028Z,98.52
2019-01-30T00:03:00.250Z,98.63
2019-01-30T00:05:28.703Z,98.52
2019-01-30T00:07:57.168Z,98.82
2019-01-30T00:10:25.789Z,98.86
2019-01-30T00:12:54.271Z,99.19
2019-01-30T00:15:22.997Z,99.29
2019-01-30T00:17:51.455Z,99.69
2019-01-30T00:20:19.914Z,99.76
2019-01-30T00:22:48.400Z,99.64
2019-01-30T00:25:17.017Z,99.72
2019-01-30T00:27:45.482Z,99.66
2019-01-30T00:30:19.289Z,99.42
2019-01-30T00:32:47.758Z,99.38
2019-01-30T00:35:16.198Z,99.46
2019-01-30T00:37:44.669Z,99.27
2019-01-30T00:40:21.172Z,99.24
2019-01-30T00:42:49.655Z,99.12
2019-01-30T00:45:24.739Z,99.26
2019-01-30T00:47:53.207Z,99.20
2019-01-30T00:50:24.943Z,99.16
2019-01-30T00:52:53.497Z,99.16
2019-01-30T00:55:21.928Z,99.03
2019-01-30T00:57:50.378Z,99.08
2019-01-30T01:00:23.764Z,99.32
2019-01-30T01:02:52.553Z,99.17
2019-01-30T01:05:22.387Z,99.56
2019-01-30T01:07:51.005Z,99.62
2019-01-30T01:10:20.913Z,100.00
2019-01-30T01:12:49.913Z,99.97
2019-01-30T01:15:18.519Z,99.92
2019-01-30T01:17:47.321Z,99.55
2019-01-30T01:20:22.739Z,99.45
2019-01-30T01:22:51.423Z,99.56
2019-01-30T01:25:20.067Z,99.78
2019-01-30T01:27:48.515Z,99.81
2019-01-30T01:30:25.363Z,99.71
2019-01-30T01:32:52.666Z,99.66
2019-01-30T01:35:21.139Z,99.78
2019-01-30T01:37:49.572Z,99.86
2019-01-30T01:40:18.114Z,99.85
2019-01-30T01:42:46.557Z,99.98
2019-01-30T01:45:17.280Z,100.00
2019-01-30T01:47:45.721Z,100.00
2019-01-30T01:50:16.124Z,100.00
2019-01-30T01:52:44.631Z,100.00
2019-01-30T01:55:13.544Z,100.00
2019-01-30T01:57:42.165Z,100.00
2019-01-30T02:00:21.867Z,100.00
2019-01-30T02:02:50.332Z,100.00
2019-01-30T02:05:23.406Z,100.00
2019-01-30T02:07:52.580Z,100.00
2019-01-30T02:10:23.529Z,100.00
2019-01-30T02:12:52.111Z,100.00
2019-01-30T02:15:22.387Z,100.00
2019-01-30T02:17:51.476Z,100.00
2019-01-30T02:20:28.387Z,100.00
2019-01-30T02:22:56.896Z,100.00
2019-01-30T02:25:25.363Z,100.00
2019-01-30T02:27:53.798Z,100.00
2019-01-30T02:30:30.261Z,100.00
2019-01-30T02:32:58.842Z,100.00
2019-01-30T02:35:27.567Z,99.89
2019-01-30T02:37:56.023Z,100.00
2019-01-30T02:40:25.890Z,100.00
2019-01-30T02:42:54.356Z,100.00
2019-01-30T02:45:25.234Z,99.56
2019-01-30T02:47:53.692Z,99.40
2019-01-30T02:50:22.142Z,99.37
2019-01-30T02:52:50.608Z,98.89
2019-01-30T02:55:19.782Z,98.84
2019-01-30T02:57:49.586Z,98.89
2019-01-30T03:00:25.918Z,98.72
2019-01-30T03:02:54.382Z,98.91
2019-01-30T03:05:22.822Z,99.02
2019-01-30T03:07:51.474Z,99.16
2019-01-30T03:10:21.373Z,99.01
2019-01-30T03:12:49.915Z,98.91
2019-01-30T03:15:19.485Z,98.96
2019-01-30T03:17:48.478Z,98.88
2019-01-30T03:20:20.038Z,99.14
2019-01-30T03:22:48.526Z,99.07
2019-01-30T03:25:18.821Z,98.85
2019-01-30T03:27:47.276Z,98.66
2019-01-30T03:30:24.896Z,98.55
2019-01-30T03:32:53.661Z,98.45
2019-01-30T03:35:22.358Z,98.73
2019-01-30T03:37:50.829Z,98.88
2019-01-30T03:40:21.009Z,98.90
2019-01-30T03:42:49.632Z,99.16
2019-01-30T03:45:22.930Z,99.12
2019-01-30T03:47:51.454Z,99.66
2019-01-30T03:50:20.069Z,99.84
2019-01-30T03:52:48.606Z,99.64
2019-01-30T03:55:20.870Z,99.48
2019-01-30T03:57:49.332Z,99.44
2019-01-30T04:00:22.949Z,99.26
2019-01-30T04:02:51.858Z,99.13
2019-01-30T04:05:20.385Z,98.94
2019-01-30T04:07:48.906Z,99.23
2019-01-30T04:10:19.680Z,99.38
2019-01-30T04:12:48.143Z,99.63
2019-01-30T04:15:16.652Z,99.55
2019-01-30T04:17:45.138Z,99.58
2019-01-30T04:20:19.251Z,99.60
2019-01-30T04:22:48.395Z,99.42
2019-01-30T04:25:17.481Z,99.30
2019-01-30T04:27:46.189Z,99.33
2019-01-30T04:30:22.121Z,99.29
2019-01-30T04:32:50.571Z,99.19
2019-01-30T04:35:19.205Z,98.99
2019-01-30T04:37:47.663Z,98.74
2019-01-30T04:40:18.270Z,98.81
2019-01-30T04:42:46.717Z,98.62
2019-01-30T04:45:18.217Z,98.73
2019-01-30T04:47:46.653Z,98.58
2019-01-30T04:50:15.394Z,98.46
2019-01-30T04:52:43.832Z,98.28
2019-01-30T04:55:12.729Z,98.21
2019-01-30T04:57:41.195Z,98.06
2019-01-30T05:00:12.869Z,97.90
2019-01-30T05:02:41.309Z,97.54
2019-01-30T05:05:11.925Z,97.25
2019-01-30T05:07:40.535Z,97.29
2019-01-30T05:10:12.043Z,96.94
2019-01-30T05:12:40.499Z,96.66
2019-01-30T05:15:14.809Z,96.59
2019-01-30T05:17:43.267Z,96.17
2019-01-30T05:20:14.482Z,95.83
2019-01-30T05:22:43.064Z,95.61
2019-01-30T05:25:11.928Z,95.55
2019-01-30T05:27:40.405Z,95.60
2019-01-30T05:30:17.829Z,95.70
2019-01-30T05:32:46.281Z,95.30
2019-01-30T05:35:14.762Z,95.18
2019-01-30T05:37:43.233Z,95.25
2019-01-30T05:40:14.503Z,95.43
2019-01-30T05:42:42.975Z,95.85
2019-01-30T05:45:16.484Z,95.99
2019-01-30T05:47:44.950Z,95.82
2019-01-30T05:50:14.676Z,96.03
2019-01-30T05:52:43.194Z,96.16
2019-01-30T05:55:14.308Z,96.09
2019-01-30T05:57:42.839Z,96.04
2019-01-30T06:00:22.011Z,95.95
2019-01-30T06:02:52.033Z,95.75
2019-01-30T06:05:20.471Z,95.70
2019-01-30T06:07:48.935Z,95.61
2019-01-30T06:10:17.415Z,95.61
2019-01-30T06:12:45.879Z,95.70
2019-01-30T06:15:17.175Z,95.49
2019-01-30T06:17:45.733Z,95.35
2019-01-30T06:20:25.464Z,95.39
2019-01-30T06:22:54.444Z,95.55
2019-01-30T06:25:23.012Z,95.66
2019-01-30T06:27:51.468Z,95.37
2019-01-30T06:30:22.358Z,95.03
2019-01-30T06:32:50.885Z,95.14
2019-01-30T06:35:19.520Z,95.12
2019-01-30T06:37:48.287Z,95.03
2019-01-30T06:40:22.041Z,95.06
2019-01-30T06:42:50.754Z,94.97
2019-01-30T06:45:19.286Z,95.00
2019-01-30T06:47:47.731Z,94.95
2019-01-30T06:50:16.187Z,94.92
2019-01-30T06:52:44.672Z,94.36
2019-01-30T06:55:13.122Z,94.74
2019-01-30T06:57:41.578Z,95.01
2019-01-30T07:00:13.334Z,94.94
2019-01-30T07:02:41.813Z,94.89
2019-01-30T07:05:10.411Z,94.58
2019-01-30T07:07:38.893Z,94.65
2019-01-30T07:10:13.579Z,94.48
2019-01-30T07:12:42.088Z,93.84
2019-01-30T07:15:10.616Z,93.37
2019-01-30T07:17:39.102Z,92.88
2019-01-30T07:20:10.668Z,92.94
2019-01-30T07:22:39.157Z,92.52
2019-01-30T07:25:13.201Z,92.36
2019-01-30T07:27:41.890Z,92.25
2019-01-30T07:30:22.106Z,92.20
2019-01-30T07:32:52.815Z,91.90
2019-01-30T07:35:21.287Z,92.08
2019-01-30T07:37:49.764Z,92.10
2019-01-30T07:40:18.292Z,91.93
2019-01-30T07:42:46.744Z,91.71
2019-01-30T07:45:23.871Z,91.42
2019-01-30T07:47:52.308Z,91.21
2019-01-30T07:50:20.899Z,91.24
2019-01-30T07:52:49.614Z,90.62
2019-01-30T07:55:18.188Z,90.65
2019-01-30T07:57:47.085Z,90.50
2019-01-30T08:00:21.299Z,90.47
2019-01-30T08:02:53.302Z,91.03
2019-01-30T08:05:22.636Z,90.77
2019-01-30T08:07:50.323Z,90.24
2019-01-30T08:10:18.853Z,90.20
2019-01-30T08:12:47.550Z,90.05
2019-01-30T08:15:23.242Z,89.57
2019-01-30T08:17:51.805Z,89.82
2019-01-30T08:20:22.006Z,89.64
2019-01-30T08:22:53.433Z,89.99
2019-01-30T08:25:23.189Z,89.17
2019-01-30T08:27:52.247Z,89.18
2019-01-30T08:30:28.917Z,88.95
2019-01-30T08:33:04.632Z,88.71
2019-01-30T08:35:30.255Z,88.29
2019-01-30T08:37:58.691Z,88.67
2019-01-30T08:40:27.496Z,88.13
2019-01-30T08:42:55.949Z,87.82
2019-01-30T08:45:27.497Z,87.81
2019-01-30T08:47:56.014Z,87.34
2019-01-30T08:50:25.883Z,87.06
2019-01-30T08:52:54.659Z,86.89
2019-01-30T08:55:23.147Z,86.43
2019-01-30T08:57:51.756Z,85.99
2019-01-30T09:00:23.279Z,85.49
2019-01-30T09:02:51.978Z,85.59
2019-01-30T09:05:20.511Z,84.78
2019-01-30T09:07:48.950Z,84.82
2019-01-30T09:10:22.765Z,84.24
2019-01-30T09:12:51.264Z,84.49
2019-01-30T09:15:24.078Z,84.48
2019-01-30T09:17:52.696Z,84.37
2019-01-30T09:20:23.215Z,83.74
2019-01-30T09:22:51.727Z,83.59
2019-01-30T09:25:22.150Z,83.52
2019-01-30T09:27:50.939Z,83.50
2019-01-30T09:30:21.449Z,83.28
2019-01-30T09:32:49.918Z,83.32
2019-01-30T09:35:18.478Z,83.36
2019-01-30T09:37:46.943Z,83.27
2019-01-30T09:40:17.846Z,83.11
2019-01-30T09:42:46.376Z,83.65
2019-01-30T09:45:17.887Z,83.56
2019-01-30T09:47:46.337Z,83.12
2019-01-30T09:50:17.121Z,83.39
2019-01-30T09:52:45.720Z,83.42
2019-01-30T09:55:15.457Z,83.06
2019-01-30T09:57:44.002Z,83.38
2019-01-30T10:00:18.420Z,83.37
2019-01-30T10:02:46.889Z,82.51
2019-01-30T10:05:15.728Z,81.71
2019-01-30T10:07:44.211Z,81.80
2019-01-30T10:10:35.441Z,81.29
2019-01-30T10:13:04.462Z,80.65
2019-01-30T10:15:35.137Z,80.39
2019-01-30T10:18:03.602Z,79.98
2019-01-30T10:20:33.630Z,80.12
2019-01-30T10:23:02.102Z,80.31
2019-01-30T10:25:30.560Z,79.96
2019-01-30T10:27:59.074Z,80.21
2019-01-30T10:30:30.305Z,79.97
2019-01-30T10:32:58.883Z,80.24
2019-01-30T10:35:27.650Z,79.09
2019-01-30T10:37:56.279Z,79.23
2019-01-30T10:40:24.798Z,78.76
2019-01-30T10:42:54.114Z,78.35
2019-01-30T10:45:23.542Z,78.79
2019-01-30T10:47:52.026Z,78.56
2019-01-30T10:50:28.979Z,77.97
2019-01-30T10:52:57.613Z,77.71
2019-01-30T10:55:30.895Z,77.66
2019-01-30T10:58:00.894Z,77.67
2019-01-30T11:00:38.059Z,76.84
2019-01-30T11:03:06.683Z,76.97
2019-01-30T11:05:35.165Z,76.41
2019-01-30T11:08:03.600Z,75.09
2019-01-30T11:10:32.104Z,74.67
2019-01-30T11:13:00.566Z,74.42
2019-01-30T11:15:30.581Z,74.08
2019-01-30T11:17:59.888Z,73.37
2019-01-30T11:20:30.136Z,72.44
2019-01-30T11:22:58.736Z,71.19
2019-01-30T11:25:33.277Z,71.46
2019-01-30T11:28:01.714Z,71.00
2019-01-30T11:30:30.223Z,69.86
2019-01-30T11:32:58.659Z,69.79
2019-01-30T11:35:27.232Z,68.96
2019-01-30T11:37:55.760Z,69.41
2019-01-30T11:40:24.646Z,69.33
2019-01-30T11:42:53.114Z,69.16
2019-01-30T11:45:36.610Z,69.28
2019-01-30T11:48:05.729Z,69.68
2019-01-30T11:50:34.164Z,69.76
2019-01-30T11:53:02.638Z,69.79
2019-01-30T11:55:31.126Z,69.94
2019-01-30T11:57:59.635Z,69.33
2019-01-30T12:00:38.158Z,69.33
2019-01-30T12:03:06.671Z,69.36
2019-01-30T12:05:35.136Z,69.96
2019-01-30T12:08:03.978Z,68.92
2019-01-30T12:10:32.575Z,69.38
2019-01-30T12:13:01.027Z,68.85
2019-01-30T12:15:29.650Z,69.24
2019-01-30T12:17:58.112Z,69.30
2019-01-30T12:20:26.566Z,68.64
2019-01-30T12:22:55.240Z,68.15
2019-01-30T12:25:24.323Z,68.03
2019-01-30T12:27:52.952Z,68.58
2019-01-30T12:30:23.442Z,68.65
2019-01-30T12:32:51.906Z,67.85
2019-01-30T12:35:20.380Z,67.50
2019-01-30T12:37:48.972Z,68.29
2019-01-30T12:40:20.515Z,67.78
2019-01-30T12:42:49.691Z,67.98
2019-01-30T12:45:23.934Z,67.16
2019-01-30T12:47:52.393Z,67.46
2019-01-30T12:50:20.868Z,67.72
2019-01-30T12:52:49.318Z,67.39
2019-01-30T12:55:17.879Z,69.27
2019-01-30T12:57:46.319Z,67.42
2019-01-30T13:00:32.741Z,67.16
2019-01-30T13:03:01.251Z,67.72
2019-01-30T13:05:30.365Z,67.45
2019-01-30T13:07:58.830Z,66.93
2019-01-30T13:10:27.305Z,66.84
2019-01-30T13:12:55.745Z,67.03
2019-01-30T13:15:26.564Z,66.76
2019-01-30T13:17:55.014Z,67.12
2019-01-30T13:20:23.761Z,66.69
2019-01-30T13:22:52.337Z,66.45
2019-01-30T13:25:26.047Z,66.97
2019-01-30T13:27:54.873Z,66.93
2019-01-30T13:30:34.964Z,67.38
2019-01-30T13:33:04.468Z,66.92
2019-01-30T13:35:32.969Z,67.04
2019-01-30T13:38:01.482Z,67.63
2019-01-30T13:40:32.490Z,67.24
2019-01-30T13:43:00.948Z,66.65
2019-01-30T13:45:30.333Z,66.12
2019-01-30T13:47:58.998Z,66.94
2019-01-30T13:50:28.499Z,67.11
2019-01-30T13:52:57.031Z,66.64
2019-01-30T13:55:25.926Z,66.87
2019-01-30T13:57:54.418Z,66.01
2019-01-30T14:00:28.383Z,66.19
2019-01-30T14:02:56.853Z,66.23
2019-01-30T14:05:25.352Z,66.81
2019-01-30T14:07:54.077Z,66.93
2019-01-30T14:10:22.512Z,66.14
2019-01-30T14:12:50.983Z,66.25
2019-01-30T14:15:21.877Z,65.81
2019-01-30T14:17:50.409Z,66.47
2019-01-30T14:20:19.269Z,66.41
2019-01-30T14:22:47.729Z,66.39
2019-01-30T14:25:17.144Z,66.66
2019-01-30T14:27:45.643Z,66.19
2019-01-30T14:30:25.561Z,65.48
2019-01-30T14:32:54.190Z,65.55
2019-01-30T14:35:23.599Z,66.40
2019-01-30T14:37:52.186Z,66.57
2019-01-30T14:40:22.153Z,66.06
2019-01-30T14:42:50.999Z,66.28
2019-01-30T14:45:20.103Z,66.40
2019-01-30T14:47:50.621Z,66.53
2019-01-30T14:50:21.279Z,66.75
2019-01-30T14:52:49.732Z,67.12
2019-01-30T14:55:18.848Z,66.72
2019-01-30T14:57:47.523Z,66.75
2019-01-30T15:00:18.878Z,66.50
2019-01-30T15:02:47.480Z,67.59
2019-01-30T15:05:22.244Z,67.29
2019-01-30T15:07:47.476Z,67.81
2019-01-30T15:10:18.372Z,67.97
2019-01-30T15:12:46.826Z,67.72
2019-01-30T15:15:17.603Z,68.29
2019-01-30T15:17:46.086Z,68.21
2019-01-30T15:20:19.662Z,68.45
2019-01-30T15:22:48.172Z,68.76
2019-01-30T15:25:21.872Z,69.04
2019-01-30T15:27:50.377Z,68.79
2019-01-30T15:30:33.797Z,69.50
2019-01-30T15:33:02.279Z,69.94
2019-01-30T15:35:33.783Z,69.76
2019-01-30T15:38:02.228Z,69.58
2019-01-30T15:40:31.415Z,69.76
2019-01-30T15:42:59.943Z,70.37
2019-01-30T15:45:28.548Z,70.46
2019-01-30T15:47:57.004Z,70.34
2019-01-30T15:50:30.963Z,70.48
2019-01-30T15:52:59.939Z,70.80
2019-01-30T15:55:28.928Z,71.33
2019-01-30T15:58:00.212Z,71.58
2019-01-30T16:00:46.719Z,71.42
2019-01-30T16:03:15.169Z,71.24
2019-01-30T16:05:45.321Z,71.22
2019-01-30T16:08:14.007Z,72.02
2019-01-30T16:10:42.639Z,72.62
2019-01-30T16:13:11.271Z,71.88
2019-01-30T16:15:43.142Z,72.32
2019-01-30T16:18:11.665Z,72.27
2019-01-30T16:20:40.142Z,72.05
2019-01-30T16:23:08.751Z,72.07
2019-01-30T16:25:37.225Z,72.06
2019-01-30T16:28:06.411Z,71.70
2019-01-30T16:30:35.065Z,72.01
2019-01-30T16:33:03.508Z,72.13
2019-01-30T16:35:33.202Z,72.02
2019-01-30T16:38:02.024Z,71.96
2019-01-30T16:40:30.469Z,72.25
2019-01-30T16:42:59.090Z,71.88
2019-01-30T16:45:32.646Z,72.02
2019-01-30T16:48:01.137Z,71.88
2019-01-30T16:50:29.594Z,72.30
2019-01-30T16:52:58.041Z,72.65
2019-01-30T16:55:26.674Z,72.41
2019-01-30T16:57:55.348Z,72.70
2019-01-30T17:00:31.913Z,72.84
2019-01-30T17:03:01.407Z,73.04
2019-01-30T17:05:30.602Z,72.70
2019-01-30T17:07:59.042Z,72.78
2019-01-30T17:10:27.512Z,73.38
2019-01-30T17:12:55.943Z,73.16
2019-01-30T17:15:33.236Z,73.25
2019-01-30T17:18:01.691Z,73.56
2019-01-30T17:20:33.728Z,73.76
2019-01-30T17:23:02.182Z,73.65
2019-01-30T17:25:30.707Z,73.00
2019-01-30T17:27:59.195Z,73.91
2019-01-30T17:30:30.682Z,74.04
2019-01-30T17:32:59.133Z,74.03
2019-01-30T17:35:27.578Z,73.95
2019-01-30T17:37:56.039Z,73.77
2019-01-30T17:40:26.975Z,73.94
2019-01-30T17:42:55.443Z,74.33
2019-01-30T17:45:23.954Z,73.78
2019-01-30T17:47:52.689Z,74.96
2019-01-30T17:50:26.490Z,74.04
2019-01-30T17:52:54.981Z,74.81
2019-01-30T17:55:26.039Z,74.80
2019-01-30T17:57:53.689Z,74.34
2019-01-30T18:00:29.424Z,74.68
2019-01-30T18:02:57.896Z,75.10
2019-01-30T18:05:26.349Z,74.48
2019-01-30T18:07:54.821Z,74.79
2019-01-30T18:10:23.285Z,74.75
2019-01-30T18:12:51.763Z,74.96
2019-01-30T18:15:20.211Z,74.95
2019-01-30T18:17:48.694Z,74.46
2019-01-30T18:20:21.442Z,75.03
2019-01-30T18:22:49.945Z,74.40
2019-01-30T18:25:19.435Z,74.77
2019-01-30T18:27:47.985Z,74.72
2019-01-30T18:30:20.914Z,74.65
2019-01-30T18:32:49.411Z,74.32
2019-01-30T18:35:18.290Z,74.32
2019-01-30T18:37:47.132Z,74.73
2019-01-30T18:40:20.970Z,74.94
2019-01-30T18:42:49.544Z,74.77
2019-01-30T18:45:23.369Z,74.79
2019-01-30T18:47:52.024Z,75.43
2019-01-30T18:50:22.623Z,75.61
2019-01-30T18:52:51.275Z,76.08
2019-01-30T18:55:19.781Z,76.14
2019-01-30T18:57:48.696Z,76.03
2019-01-30T19:00:28.433Z,76.27
2019-01-30T19:02:58.846Z,76.68
2019-01-30T19:05:28.047Z,77.09
2019-01-30T19:07:58.179Z,77.39
2019-01-30T19:10:26.641Z,77.28
2019-01-30T19:12:55.120Z,77.75
2019-01-30T19:15:27.767Z,78.10
2019-01-30T19:17:56.371Z,78.40
2019-01-30T19:20:28.959Z,78.50
2019-01-30T19:22:57.562Z,78.49
2019-01-30T19:25:26.013Z,78.35
2019-01-30T19:27:56.143Z,78.53
2019-01-30T19:30:27.016Z,78.65
2019-01-30T19:32:55.556Z,78.43
2019-01-30T19:35:24.360Z,79.12
2019-01-30T19:37:52.985Z,79.16
2019-01-30T19:40:21.905Z,79.13
2019-01-30T19:42:50.532Z,79.25
2019-01-30T19:45:24.150Z,79.51
2019-01-30T19:47:52.625Z,79.58
2019-01-30T19:50:25.749Z,79.35
2019-01-30T19:52:55.219Z,79.75
2019-01-30T19:55:23.698Z,80.28
2019-01-30T19:57:52.414Z,80.11
2019-01-30T20:00:32.048Z,80.14
2019-01-30T20:03:01.995Z,79.72
2019-01-30T20:05:30.626Z,79.92
2019-01-30T20:08:02.052Z,80.03
2019-01-30T20:10:33.202Z,80.47
2019-01-30T20:13:01.819Z,80.16
2019-01-30T20:15:30.737Z,80.36
2019-01-30T20:17:59.298Z,80.64
2019-01-30T20:20:29.303Z,80.92
2019-01-30T20:22:57.812Z,80.90
2019-01-30T20:25:32.886Z,80.97
2019-01-30T20:28:01.338Z,80.69
2019-01-30T20:30:29.817Z,81.12
2019-01-30T20:32:58.295Z,81.11
2019-01-30T20:35:26.889Z,80.92
2019-01-30T20:37:55.407Z,81.06
2019-01-30T20:40:26.154Z,81.32
2019-01-30T20:42:54.689Z,81.31
2019-01-30T20:45:33.459Z,81.43
2019-01-30T20:47:53.915Z,81.53
2019-01-30T20:50:28.034Z,81.31
2019-01-30T20:52:57.052Z,81.40
2019-01-30T20:55:26.024Z,81.42
2019-01-30T20:57:54.543Z,82.01
2019-01-30T21:00:35.261Z,82.04
2019-01-30T21:03:04.252Z,81.74
2019-01-30T21:05:32.731Z,82.10
2019-01-30T21:08:01.202Z,82.28
2019-01-30T21:10:32.383Z,82.59
2019-01-30T21:13:00.880Z,82.53
2019-01-30T21:15:29.446Z,82.10
2019-01-30T21:17:57.915Z,82.19
2019-01-30T21:20:26.448Z,82.26
2019-01-30T21:22:54.950Z,82.67
2019-01-30T21:25:23.772Z,82.72
2019-01-30T21:27:52.399Z,82.52
2019-01-30T21:30:26.314Z,82.58
2019-01-30T21:32:54.762Z,82.63
2019-01-30T21:35:23.238Z,82.82
2019-01-30T21:37:51.784Z,82.80
2019-01-30T21:40:20.823Z,82.64
2019-01-30T21:42:49.880Z,82.71
2019-01-30T21:45:23.075Z,82.49
2019-01-30T21:47:51.739Z,82.81
2019-01-30T21:50:21.263Z,83.32
2019-01-30T21:52:49.799Z,83.07
2019-01-30T21:55:20.653Z,82.91
2019-01-30T21:57:49.131Z,82.64
2019-01-30T22:00:20.349Z,82.96
2019-01-30T22:02:48.919Z,83.18
2019-01-30T22:05:17.815Z,83.19
2019-01-30T22:07:46.319Z,83.08
2019-01-30T22:10:17.233Z,83.07
2019-01-30T22:12:45.700Z,83.31
2019-01-30T22:15:16.455Z,83.38
2019-01-30T22:17:45.096Z,83.27
2019-01-30T22:20:15.797Z,82.94
2019-01-30T22:22:44.255Z,82.88
2019-01-30T22:25:20.475Z,82.87
2019-01-30T22:27:45.836Z,83.35
2019-01-30T22:30:19.803Z,83.40
2019-01-30T22:32:48.344Z,83.88
2019-01-30T22:35:16.783Z,83.40
2019-01-30T22:37:45.271Z,83.64
2019-01-30T22:40:15.445Z,84.19
2019-01-30T22:42:44.138Z,84.34
2019-01-30T22:45:17.377Z,83.69
2019-01-30T22:47:45.881Z,84.21
2019-01-30T22:50:15.973Z,84.19
2019-01-30T22:52:44.996Z,84.25
2019-01-30T22:55:15.857Z,84.22
2019-01-30T22:57:44.374Z,84.12
2019-01-30T23:00:53.901Z,84.31
2019-01-30T23:03:25.413Z,83.69
2019-01-30T23:06:31.240Z,83.64
2019-01-30T23:09:25.625Z,83.79
2019-01-30T23:12:16.109Z,83.73
2019-01-30T23:15:15.092Z,84.43
2019-01-30T23:17:58.632Z,84.53
2019-01-30T23:20:27.158Z,84.36
2019-01-30T23:23:15.202Z,84.20
2019-01-30T23:26:06.492Z,84.23
2019-01-30T23:28:38.026Z,84.02
2019-01-30T23:31:15.246Z,84.13
2019-01-30T23:34:04.996Z,84.13
2019-01-30T23:36:55.882Z,84.58
2019-01-30T23:39:48.336Z,84.52
2019-01-30T23:42:25.242Z,84.87
2019-01-30T23:45:02.351Z,85.12
2019-01-30T23:47:33.846Z,85.14
2019-01-30T23:50:29.432Z,84.91
2019-01-30T23:53:32.764Z,84.96
2019-01-30T23:56:20.625Z,85.03
2019-01-30T23:58:52.123Z,84.85
